createdAt,value
2018-09-06T00:00:07.399Z,0.00
2018-09-06T00:02:00.318Z,0.00
2018-09-06T00:03:00.333Z,0.00
2018-09-06T00:04:53.279Z,0.00
2018-09-06T00:05:53.263Z,0.00
2018-09-06T00:07:46.173Z,0.00
2018-09-06T00:08:46.194Z,0.00
2018-09-06T00:10:39.115Z,0.00
2018-09-06T00:11:39.129Z,0.00
2018-09-06T00:13:32.045Z,0.00
2018-09-06T00:14:32.064Z,0.00
2018-09-06T00:16:24.991Z,0.00
2018-09-06T00:17:24.996Z,0.00
2018-09-06T00:19:17.899Z,0.00
2018-09-06T00:20:17.927Z,0.00
2018-09-06T00:22:10.981Z,0.00
2018-09-06T00:23:11.007Z,0.00
2018-09-06T00:25:03.910Z,0.00
2018-09-06T00:26:03.933Z,0.00
2018-09-06T00:27:56.856Z,0.00
2018-09-06T00:28:56.879Z,0.00
2018-09-06T00:30:49.787Z,0.00
2018-09-06T00:31:49.800Z,0.00
2018-09-06T00:33:42.721Z,0.00
2018-09-06T00:34:42.746Z,0.00
2018-09-06T00:36:35.662Z,0.00
2018-09-06T00:37:35.677Z,0.00
2018-09-06T00:39:28.583Z,0.00
2018-09-06T00:40:28.605Z,0.00
2018-09-06T00:42:21.525Z,0.00
2018-09-06T00:43:21.536Z,0.00
2018-09-06T00:45:14.446Z,0.00
2018-09-06T00:46:14.470Z,0.00
2018-09-06T00:48:07.387Z,0.00
2018-09-06T00:49:07.401Z,0.00
2018-09-06T00:51:00.324Z,0.00
2018-09-06T00:52:00.338Z,0.00
2018-09-06T00:53:53.248Z,0.00
2018-09-06T00:54:53.273Z,0.00
2018-09-06T00:56:47.192Z,0.00
2018-09-06T00:57:47.207Z,0.00
2018-09-06T00:59:40.119Z,0.00
2018-09-06T01:00:40.141Z,0.00
2018-09-06T01:02:33.061Z,0.00
2018-09-06T01:03:33.073Z,0.00
2018-09-06T01:05:25.989Z,0.00
2018-09-06T01:06:26.012Z,0.00
2018-09-06T01:08:18.927Z,0.00
2018-09-06T01:09:18.933Z,0.00
2018-09-06T01:11:11.862Z,0.00
2018-09-06T01:12:11.889Z,0.00
2018-09-06T01:14:04.787Z,0.00
2018-09-06T01:15:04.809Z,0.00
2018-09-06T01:16:57.727Z,0.00
2018-09-06T01:17:57.741Z,0.00
2018-09-06T01:19:50.658Z,0.00
2018-09-06T01:20:50.679Z,0.00
2018-09-06T01:22:43.599Z,0.00
2018-09-06T01:23:43.610Z,0.00
2018-09-06T01:25:36.520Z,0.00
2018-09-06T01:26:36.543Z,0.00
2018-09-06T01:28:29.469Z,0.00
2018-09-06T01:29:29.481Z,0.00
2018-09-06T01:31:22.398Z,0.00
2018-09-06T01:32:22.412Z,0.00
2018-09-06T01:34:15.320Z,0.00
2018-09-06T01:35:15.344Z,0.00
2018-09-06T01:37:08.265Z,0.00
2018-09-06T01:38:08.275Z,0.00
2018-09-06T01:40:01.183Z,0.00
2018-09-06T01:41:01.206Z,0.00
2018-09-06T01:42:54.127Z,0.00
2018-09-06T01:43:54.146Z,0.00
2018-09-06T01:45:47.049Z,0.00
2018-09-06T01:46:47.072Z,0.00
2018-09-06T01:48:39.991Z,0.00
2018-09-06T01:49:40.012Z,0.00
2018-09-06T01:51:32.928Z,0.00
2018-09-06T01:52:32.943Z,0.00
2018-09-06T01:54:25.851Z,0.00
2018-09-06T01:55:25.875Z,0.00
2018-09-06T01:57:18.797Z,0.00
2018-09-06T01:58:18.811Z,0.00
2018-09-06T02:00:11.722Z,0.00
2018-09-06T02:01:11.741Z,0.00
2018-09-06T02:03:04.668Z,0.00
2018-09-06T02:04:04.681Z,0.00
2018-09-06T02:05:57.590Z,0.00
2018-09-06T02:06:57.610Z,0.00
2018-09-06T02:08:50.544Z,0.00
2018-09-06T02:09:50.543Z,0.00
2018-09-06T02:11:43.471Z,0.00
2018-09-06T02:12:43.488Z,0.00
2018-09-06T02:14:36.396Z,0.00
2018-09-06T02:15:36.416Z,0.00
2018-09-06T02:17:29.335Z,0.00
2018-09-06T02:18:29.347Z,0.00
2018-09-06T02:20:22.258Z,0.00
2018-09-06T02:21:22.280Z,0.00
2018-09-06T02:23:15.197Z,0.00
2018-09-06T02:24:15.251Z,0.00
2018-09-06T02:26:08.135Z,0.00
2018-09-06T02:27:08.174Z,0.00
2018-09-06T02:29:01.073Z,0.00
2018-09-06T02:30:01.090Z,0.00
2018-09-06T02:31:54.210Z,0.00
2018-09-06T02:32:54.225Z,0.00
2018-09-06T02:34:47.130Z,0.00
2018-09-06T02:35:47.162Z,0.00
2018-09-06T02:37:40.082Z,0.00
2018-09-06T02:38:40.083Z,0.00
2018-09-06T02:40:33.000Z,0.00
2018-09-06T02:41:33.029Z,0.00
2018-09-06T02:43:25.939Z,0.00
2018-09-06T02:44:25.957Z,0.00
2018-09-06T02:46:18.865Z,0.00
2018-09-06T02:47:18.887Z,0.00
2018-09-06T02:49:11.806Z,0.00
2018-09-06T02:50:11.817Z,0.00
2018-09-06T02:52:04.737Z,0.00
2018-09-06T02:53:04.751Z,0.00
2018-09-06T02:54:57.661Z,0.00
2018-09-06T02:55:57.680Z,0.00
2018-09-06T02:57:50.599Z,0.00
2018-09-06T02:58:50.608Z,0.00
2018-09-06T03:00:43.513Z,0.00
2018-09-06T03:01:43.540Z,0.00
2018-09-06T03:03:36.469Z,0.00
2018-09-06T03:04:36.472Z,0.00
2018-09-06T03:06:29.382Z,0.00
2018-09-06T03:07:29.408Z,0.00
2018-09-06T03:09:22.328Z,0.00
2018-09-06T03:10:22.339Z,0.00
2018-09-06T03:12:15.259Z,0.00
2018-09-06T03:13:15.269Z,0.00
2018-09-06T03:15:08.181Z,0.00
2018-09-06T03:16:08.211Z,0.00
2018-09-06T03:18:01.122Z,0.00
2018-09-06T03:19:01.142Z,0.00
2018-09-06T03:20:54.044Z,0.00
2018-09-06T03:21:54.064Z,0.00
2018-09-06T03:23:46.982Z,0.00
2018-09-06T03:24:46.999Z,0.00
2018-09-06T03:26:39.908Z,0.00
2018-09-06T03:27:39.927Z,0.00
2018-09-06T03:29:32.854Z,0.00
2018-09-06T03:30:32.859Z,0.00
2018-09-06T03:32:25.798Z,0.00
2018-09-06T03:33:25.808Z,0.00
2018-09-06T03:35:18.718Z,0.00
2018-09-06T03:36:18.742Z,0.00
2018-09-06T03:38:11.661Z,0.00
2018-09-06T03:39:11.669Z,0.00
2018-09-06T03:41:04.582Z,0.00
2018-09-06T03:42:04.602Z,0.00
2018-09-06T03:43:57.525Z,0.00
2018-09-06T03:44:57.535Z,0.00
2018-09-06T03:46:50.458Z,0.00
2018-09-06T03:47:50.480Z,0.00
2018-09-06T03:49:43.396Z,0.00
2018-09-06T03:50:43.408Z,0.00
2018-09-06T03:52:36.325Z,0.00
2018-09-06T03:53:36.342Z,0.00
2018-09-06T03:55:29.247Z,0.00
2018-09-06T03:56:29.274Z,0.00
2018-09-06T03:58:22.192Z,0.00
2018-09-06T03:59:22.204Z,0.00
2018-09-06T04:01:15.115Z,0.00
2018-09-06T04:02:15.135Z,0.00
2018-09-06T04:04:08.046Z,0.00
2018-09-06T04:05:08.059Z,0.00
2018-09-06T04:07:00.972Z,0.00
2018-09-06T04:08:00.995Z,0.00
2018-09-06T04:09:53.918Z,0.00
2018-09-06T04:10:53.920Z,0.00
2018-09-06T04:12:46.839Z,0.00
2018-09-06T04:13:46.854Z,0.00
2018-09-06T04:15:39.760Z,0.00
2018-09-06T04:16:39.782Z,0.00
2018-09-06T04:18:32.744Z,0.00
2018-09-06T04:19:32.714Z,0.00
2018-09-06T04:21:25.648Z,0.00
2018-09-06T04:22:25.652Z,0.00
2018-09-06T04:24:18.638Z,0.00
2018-09-06T04:25:18.584Z,0.00
2018-09-06T04:27:11.489Z,0.00
2018-09-06T04:28:11.509Z,0.00
2018-09-06T04:30:04.427Z,0.00
2018-09-06T04:31:04.437Z,0.00
2018-09-06T04:32:57.387Z,0.00
2018-09-06T04:33:57.368Z,0.00
2018-09-06T04:35:50.279Z,0.00
2018-09-06T04:36:50.330Z,0.00
2018-09-06T04:38:43.254Z,0.00
2018-09-06T04:39:43.382Z,0.00
2018-09-06T04:41:36.181Z,5.63
2018-09-06T04:42:36.206Z,5.63
2018-09-06T04:44:29.122Z,5.63
2018-09-06T04:45:29.132Z,5.63
2018-09-06T04:47:22.049Z,5.63
2018-09-06T04:48:22.077Z,5.63
2018-09-06T04:50:14.992Z,11.25
2018-09-06T04:51:15.003Z,11.25
2018-09-06T04:53:07.933Z,11.25
2018-09-06T04:54:07.934Z,16.88
2018-09-06T04:56:00.846Z,16.88
2018-09-06T04:57:00.860Z,16.88
2018-09-06T04:58:53.777Z,22.50
2018-09-06T04:59:53.792Z,22.50
2018-09-06T05:01:46.697Z,28.13
2018-09-06T05:02:46.718Z,28.13
2018-09-06T05:04:39.639Z,33.75
2018-09-06T05:05:39.646Z,33.75
2018-09-06T05:07:32.554Z,39.38
2018-09-06T05:08:32.575Z,39.38
2018-09-06T05:10:25.501Z,39.38
2018-09-06T05:11:25.514Z,45.00
2018-09-06T05:13:18.423Z,45.00
2018-09-06T05:14:18.442Z,50.63
2018-09-06T05:16:11.358Z,50.63
2018-09-06T05:17:11.371Z,56.25
2018-09-06T05:19:04.286Z,56.25
2018-09-06T05:20:04.296Z,61.88
2018-09-06T05:21:57.227Z,61.88
2018-09-06T05:22:57.225Z,67.50
2018-09-06T05:24:50.144Z,73.13
2018-09-06T05:25:50.155Z,73.13
2018-09-06T05:27:43.067Z,78.75
2018-09-06T05:28:43.085Z,84.38
2018-09-06T05:30:36.067Z,84.38
2018-09-06T05:31:36.013Z,90.00
2018-09-06T05:33:28.922Z,90.00
2018-09-06T05:34:28.981Z,95.63
2018-09-06T05:36:21.880Z,101.25
2018-09-06T05:37:21.880Z,101.25
2018-09-06T05:39:14.800Z,101.25
2018-09-06T05:40:14.813Z,101.25
2018-09-06T05:42:07.720Z,112.50
2018-09-06T05:43:07.740Z,118.13
2018-09-06T05:45:00.662Z,118.13
2018-09-06T05:46:00.674Z,123.75
2018-09-06T05:47:53.584Z,129.38
2018-09-06T05:48:53.612Z,135.00
2018-09-06T05:50:46.524Z,140.63
2018-09-06T05:51:46.536Z,146.25
2018-09-06T05:53:39.446Z,163.13
2018-09-06T05:54:39.467Z,157.50
2018-09-06T05:56:32.384Z,180.00
2018-09-06T05:57:32.396Z,180.00
2018-09-06T05:59:25.339Z,196.88
2018-09-06T06:00:25.328Z,208.13
2018-09-06T06:02:18.244Z,230.63
2018-09-06T06:03:18.266Z,247.50
2018-09-06T06:05:11.206Z,303.75
2018-09-06T06:06:11.195Z,320.63
2018-09-06T06:08:04.105Z,326.25
2018-09-06T06:09:04.130Z,320.63
2018-09-06T06:10:57.049Z,309.38
2018-09-06T06:11:57.118Z,298.13
2018-09-06T06:13:49.973Z,292.50
2018-09-06T06:14:49.998Z,286.88
2018-09-06T06:16:42.919Z,275.63
2018-09-06T06:17:42.933Z,275.63
2018-09-06T06:19:35.859Z,286.88
2018-09-06T06:20:35.871Z,258.75
2018-09-06T06:22:28.783Z,303.75
2018-09-06T06:23:28.808Z,320.63
2018-09-06T06:25:21.734Z,264.38
2018-09-06T06:26:21.749Z,230.63
2018-09-06T06:28:14.665Z,213.75
2018-09-06T06:29:14.687Z,196.88
2018-09-06T06:31:07.613Z,185.63
2018-09-06T06:32:07.638Z,247.50
2018-09-06T06:34:00.603Z,253.13
2018-09-06T06:35:00.566Z,196.88
2018-09-06T06:36:53.492Z,213.75
2018-09-06T06:37:53.514Z,286.88
2018-09-06T06:39:46.442Z,303.75
2018-09-06T06:40:46.444Z,286.88
2018-09-06T06:42:39.363Z,315.00
2018-09-06T06:43:39.384Z,281.25
2018-09-06T06:45:32.311Z,247.50
2018-09-06T06:46:32.325Z,225.00
2018-09-06T06:48:25.240Z,219.38
2018-09-06T06:49:25.270Z,219.38
2018-09-06T06:51:18.195Z,230.63
2018-09-06T06:52:18.206Z,230.63
2018-09-06T06:54:11.124Z,236.25
2018-09-06T06:55:11.147Z,236.25
2018-09-06T06:57:04.075Z,253.13
2018-09-06T06:58:04.090Z,270.00
2018-09-06T06:59:57.012Z,298.13
2018-09-06T07:00:57.038Z,315.00
2018-09-06T07:02:49.943Z,337.50
2018-09-06T07:03:49.969Z,343.13
2018-09-06T07:05:42.893Z,331.88
2018-09-06T07:06:42.957Z,331.88
2018-09-06T07:08:35.825Z,326.25
2018-09-06T07:09:35.846Z,331.88
2018-09-06T07:11:28.768Z,326.25
2018-09-06T07:12:28.785Z,309.38
2018-09-06T07:14:21.701Z,286.88
2018-09-06T07:15:21.726Z,281.25
2018-09-06T07:17:14.652Z,292.50
2018-09-06T07:18:14.680Z,303.75
2018-09-06T07:20:07.593Z,303.75
2018-09-06T07:21:07.610Z,303.75
2018-09-06T07:23:00.523Z,298.13
2018-09-06T07:24:00.547Z,303.75
2018-09-06T07:25:53.471Z,303.75
2018-09-06T07:26:53.491Z,309.38
2018-09-06T07:28:46.402Z,309.38
2018-09-06T07:29:46.429Z,309.38
2018-09-06T07:31:39.352Z,315.00
2018-09-06T07:32:39.368Z,315.00
2018-09-06T07:34:32.285Z,320.63
2018-09-06T07:35:32.312Z,315.00
2018-09-06T07:37:25.238Z,309.38
2018-09-06T07:38:25.251Z,309.38
2018-09-06T07:40:18.176Z,303.75
2018-09-06T07:41:18.251Z,298.13
2018-09-06T07:43:11.109Z,298.13
2018-09-06T07:44:11.134Z,292.50
2018-09-06T07:46:04.064Z,292.50
2018-09-06T07:47:04.077Z,292.50
2018-09-06T07:48:56.994Z,286.88
2018-09-06T07:49:57.039Z,286.88
2018-09-06T07:51:49.966Z,281.25
2018-09-06T07:52:49.966Z,286.88
2018-09-06T07:54:42.886Z,286.88
2018-09-06T07:55:42.913Z,286.88
2018-09-06T07:57:35.832Z,281.25
2018-09-06T07:58:35.850Z,275.63
2018-09-06T08:00:28.776Z,275.63
2018-09-06T08:01:28.850Z,275.63
2018-09-06T08:03:21.705Z,264.38
2018-09-06T08:04:21.730Z,264.38
2018-09-06T08:06:14.655Z,270.00
2018-09-06T08:07:14.674Z,275.63
2018-09-06T08:09:07.585Z,281.25
2018-09-06T08:10:07.612Z,281.25
2018-09-06T08:12:00.549Z,270.00
2018-09-06T08:13:00.552Z,270.00
2018-09-06T08:14:53.468Z,286.88
2018-09-06T08:15:53.496Z,292.50
2018-09-06T08:17:46.419Z,298.13
2018-09-06T08:18:46.461Z,309.38
2018-09-06T08:20:39.361Z,331.88
2018-09-06T08:21:39.377Z,337.50
2018-09-06T08:23:32.292Z,365.63
2018-09-06T08:24:32.373Z,388.13
2018-09-06T08:26:25.242Z,405.00
2018-09-06T08:27:25.261Z,410.63
2018-09-06T08:29:18.177Z,405.00
2018-09-06T08:30:18.201Z,399.38
2018-09-06T08:32:11.127Z,371.25
2018-09-06T08:33:11.145Z,360.00
2018-09-06T08:35:04.060Z,343.13
2018-09-06T08:36:04.086Z,343.13
2018-09-06T08:37:57.014Z,331.88
2018-09-06T08:38:57.036Z,337.50
2018-09-06T08:40:49.957Z,337.50
2018-09-06T08:41:49.974Z,331.88
2018-09-06T08:43:43.054Z,376.88
2018-09-06T08:44:43.083Z,405.00
2018-09-06T08:46:36.012Z,433.13
2018-09-06T08:47:36.043Z,438.75
2018-09-06T08:49:28.950Z,438.75
2018-09-06T08:50:28.972Z,427.50
2018-09-06T08:52:21.956Z,410.63
2018-09-06T08:53:21.917Z,405.00
2018-09-06T08:55:14.839Z,393.75
2018-09-06T08:56:14.868Z,388.13
2018-09-06T08:58:07.792Z,371.25
2018-09-06T08:59:07.808Z,360.00
2018-09-06T09:01:00.733Z,371.25
2018-09-06T09:02:00.788Z,388.13
2018-09-06T09:03:53.670Z,410.63
2018-09-06T09:04:53.700Z,410.63
2018-09-06T09:06:46.623Z,388.13
2018-09-06T09:07:46.640Z,393.75
2018-09-06T09:09:39.564Z,399.38
2018-09-06T09:10:39.591Z,399.38
2018-09-06T09:12:32.529Z,382.50
2018-09-06T09:13:32.532Z,371.25
2018-09-06T09:15:25.451Z,371.25
2018-09-06T09:16:25.478Z,382.50
2018-09-06T09:18:18.474Z,393.75
2018-09-06T09:19:18.424Z,399.38
2018-09-06T09:21:11.357Z,410.63
2018-09-06T09:22:11.410Z,416.25
2018-09-06T09:24:04.294Z,421.88
2018-09-06T09:25:04.321Z,427.50
2018-09-06T09:26:57.249Z,450.00
2018-09-06T09:27:57.266Z,461.25
2018-09-06T09:29:50.188Z,489.38
2018-09-06T09:30:50.213Z,500.63
2018-09-06T09:32:43.145Z,517.50
2018-09-06T09:33:43.160Z,506.25
2018-09-06T09:35:36.082Z,483.75
2018-09-06T09:36:36.107Z,472.50
2018-09-06T09:38:29.037Z,444.38
2018-09-06T09:39:29.062Z,433.13
2018-09-06T09:41:21.985Z,388.13
2018-09-06T09:42:22.012Z,365.63
2018-09-06T09:44:14.923Z,348.75
2018-09-06T09:45:14.961Z,337.50
2018-09-06T09:48:39.512Z,354.38
2018-09-06T09:49:39.565Z,343.13
2018-09-06T09:51:32.467Z,348.75
2018-09-06T09:52:32.485Z,365.63
2018-09-06T09:54:25.425Z,405.00
2018-09-06T09:55:25.434Z,427.50
2018-09-06T09:57:18.367Z,427.50
2018-09-06T09:58:18.383Z,416.25
2018-09-06T10:00:11.312Z,393.75
2018-09-06T10:01:11.342Z,388.13
2018-09-06T10:03:04.274Z,388.13
2018-09-06T10:04:04.295Z,382.50
2018-09-06T10:05:57.214Z,393.75
2018-09-06T10:06:57.243Z,416.25
2018-09-06T10:08:50.184Z,472.50
2018-09-06T10:09:50.204Z,495.00
2018-09-06T10:11:43.137Z,511.88
2018-09-06T10:12:43.155Z,528.75
2018-09-06T10:14:36.076Z,534.38
2018-09-06T10:15:36.105Z,506.25
2018-09-06T10:17:29.046Z,433.13
2018-09-06T10:18:29.066Z,405.00
2018-09-06T10:20:21.989Z,360.00
2018-09-06T10:21:22.018Z,348.75
2018-09-06T10:23:14.946Z,360.00
2018-09-06T10:24:14.984Z,382.50
2018-09-06T10:26:07.888Z,433.13
2018-09-06T10:27:07.915Z,450.00
2018-09-06T10:29:00.852Z,438.75
2018-09-06T10:30:00.870Z,421.88
2018-09-06T10:31:53.796Z,421.88
2018-09-06T10:32:53.824Z,438.75
2018-09-06T10:34:46.760Z,450.00
2018-09-06T10:35:46.780Z,444.38
2018-09-06T10:37:39.713Z,433.13
2018-09-06T10:38:39.732Z,399.38
2018-09-06T10:40:32.683Z,331.88
2018-09-06T10:41:32.678Z,298.13
2018-09-06T10:43:25.616Z,298.13
2018-09-06T10:44:25.633Z,315.00
2018-09-06T10:46:18.559Z,348.75
2018-09-06T10:47:18.588Z,365.63
2018-09-06T10:49:11.519Z,405.00
2018-09-06T10:50:11.540Z,405.00
2018-09-06T10:52:04.457Z,405.00
2018-09-06T10:53:04.482Z,421.88
2018-09-06T10:54:57.411Z,433.13
2018-09-06T10:55:57.437Z,433.13
2018-09-06T10:57:50.361Z,416.25
2018-09-06T10:58:50.384Z,388.13
2018-09-06T11:00:43.328Z,376.88
2018-09-06T11:01:43.332Z,348.75
2018-09-06T11:03:36.260Z,258.75
2018-09-06T11:04:36.281Z,230.63
2018-09-06T11:06:29.205Z,230.63
2018-09-06T11:07:29.229Z,225.00
2018-09-06T11:09:22.160Z,236.25
2018-09-06T11:10:22.176Z,236.25
2018-09-06T11:12:15.099Z,241.88
2018-09-06T11:13:15.130Z,247.50
2018-09-06T11:15:08.163Z,247.50
2018-09-06T11:16:08.078Z,247.50
2018-09-06T11:18:01.051Z,230.63
2018-09-06T11:19:01.023Z,236.25
2018-09-06T11:20:53.943Z,275.63
2018-09-06T11:21:54.152Z,286.88
2018-09-06T11:23:46.901Z,315.00
2018-09-06T11:24:46.923Z,337.50
2018-09-06T11:26:39.844Z,382.50
2018-09-06T11:27:39.915Z,388.13
2018-09-06T11:29:32.797Z,382.50
2018-09-06T11:30:32.821Z,382.50
2018-09-06T11:32:25.740Z,382.50
2018-09-06T11:33:25.858Z,365.63
2018-09-06T11:35:18.695Z,309.38
2018-09-06T11:36:18.712Z,320.63
2018-09-06T11:38:11.648Z,382.50
2018-09-06T11:39:11.666Z,405.00
2018-09-06T11:41:04.588Z,405.00
2018-09-06T11:42:04.617Z,405.00
2018-09-06T11:43:57.544Z,421.88
2018-09-06T11:44:57.567Z,416.25
2018-09-06T11:46:50.543Z,410.63
2018-09-06T11:47:50.561Z,405.00
2018-09-06T11:49:43.447Z,416.25
2018-09-06T11:50:43.468Z,393.75
2018-09-06T11:52:36.389Z,354.38
2018-09-06T11:53:36.420Z,360.00
2018-09-06T11:55:29.368Z,393.75
2018-09-06T11:56:29.370Z,405.00
2018-09-06T11:58:22.302Z,421.88
2018-09-06T11:59:22.317Z,421.88
2018-09-06T12:01:15.239Z,410.63
2018-09-06T12:02:15.329Z,399.38
2018-09-06T12:04:08.197Z,376.88
2018-09-06T12:05:08.219Z,360.00
2018-09-06T12:07:01.141Z,343.13
2018-09-06T12:08:01.166Z,331.88
2018-09-06T12:09:54.099Z,315.00
2018-09-06T12:10:54.127Z,298.13
2018-09-06T12:12:47.037Z,247.50
2018-09-06T12:13:47.087Z,208.13
2018-09-06T12:15:39.994Z,163.13
2018-09-06T12:16:40.014Z,157.50
2018-09-06T12:18:32.938Z,168.75
2018-09-06T12:19:33.020Z,180.00
2018-09-06T12:21:25.874Z,180.00
2018-09-06T12:22:25.905Z,185.63
2018-09-06T12:24:18.977Z,191.25
2018-09-06T12:25:19.019Z,191.25
2018-09-06T12:27:11.914Z,185.63
2018-09-06T12:28:11.955Z,180.00
2018-09-06T12:30:04.866Z,168.75
2018-09-06T12:31:04.884Z,163.13
2018-09-06T12:32:57.803Z,168.75
2018-09-06T12:33:57.829Z,185.63
2018-09-06T12:35:50.755Z,208.13
2018-09-06T12:36:50.773Z,213.75
2018-09-06T12:38:43.746Z,202.50
2018-09-06T12:39:43.717Z,185.63
2018-09-06T12:41:36.634Z,157.50
2018-09-06T12:42:36.657Z,146.25
2018-09-06T12:44:29.585Z,129.38
2018-09-06T12:45:29.601Z,135.00
2018-09-06T12:47:22.519Z,140.63
2018-09-06T12:48:22.545Z,140.63
2018-09-06T12:50:15.470Z,140.63
2018-09-06T12:51:15.490Z,146.25
2018-09-06T12:53:08.404Z,157.50
2018-09-06T12:54:08.432Z,168.75
2018-09-06T12:56:01.353Z,180.00
2018-09-06T12:57:01.372Z,180.00
2018-09-06T12:58:54.295Z,191.25
2018-09-06T12:59:54.310Z,202.50
2018-09-06T13:01:47.224Z,213.75
2018-09-06T13:02:47.252Z,219.38
2018-09-06T13:04:40.181Z,219.38
2018-09-06T13:05:40.194Z,213.75
2018-09-06T13:07:33.115Z,191.25
2018-09-06T13:08:33.135Z,191.25
2018-09-06T13:10:26.059Z,180.00
2018-09-06T13:11:26.077Z,174.38
2018-09-06T13:13:18.995Z,157.50
2018-09-06T13:14:19.016Z,151.88
2018-09-06T13:16:11.942Z,163.13
2018-09-06T13:17:11.960Z,157.50
2018-09-06T13:19:04.881Z,151.88
2018-09-06T13:20:04.899Z,163.13
2018-09-06T13:21:57.817Z,185.63
2018-09-06T13:22:57.837Z,196.88
2018-09-06T13:24:50.763Z,236.25
2018-09-06T13:25:50.780Z,247.50
2018-09-06T13:27:43.695Z,253.13
2018-09-06T13:28:43.723Z,258.75
2018-09-06T13:30:36.647Z,281.25
2018-09-06T13:31:36.667Z,286.88
2018-09-06T13:33:29.575Z,298.13
2018-09-06T13:34:29.604Z,292.50
2018-09-06T13:36:22.531Z,281.25
2018-09-06T13:37:22.546Z,270.00
2018-09-06T13:39:15.466Z,264.38
2018-09-06T13:40:15.484Z,258.75
2018-09-06T13:42:08.400Z,270.00
2018-09-06T13:43:08.486Z,286.88
2018-09-06T13:45:01.351Z,326.25
2018-09-06T13:46:01.366Z,326.25
2018-09-06T13:47:54.288Z,320.63
2018-09-06T13:48:54.321Z,303.75
2018-09-06T13:50:47.238Z,286.88
2018-09-06T13:51:47.254Z,286.88
2018-09-06T13:53:40.197Z,270.00
2018-09-06T13:54:40.208Z,258.75
2018-09-06T13:56:33.125Z,247.50
2018-09-06T13:57:33.143Z,241.88
2018-09-06T13:59:26.097Z,213.75
2018-09-06T14:00:26.116Z,202.50
2018-09-06T14:02:19.033Z,208.13
2018-09-06T14:03:19.056Z,213.75
2018-09-06T14:05:12.045Z,225.00
2018-09-06T14:06:12.005Z,225.00
2018-09-06T14:08:04.930Z,219.38
2018-09-06T14:09:04.954Z,225.00
2018-09-06T14:10:57.886Z,219.38
2018-09-06T14:11:57.905Z,202.50
2018-09-06T14:13:50.864Z,180.00
2018-09-06T14:14:50.855Z,174.38
2018-09-06T14:16:43.902Z,157.50
2018-09-06T14:17:43.799Z,151.88
2018-09-06T14:19:36.727Z,151.88
2018-09-06T14:20:36.743Z,157.50
2018-09-06T14:22:29.660Z,140.63
2018-09-06T14:23:29.684Z,129.38
2018-09-06T14:25:23.610Z,118.13
2018-09-06T14:26:23.627Z,112.50
2018-09-06T14:28:16.548Z,112.50
2018-09-06T14:29:16.569Z,112.50
2018-09-06T14:31:09.497Z,106.88
2018-09-06T14:32:09.572Z,101.25
2018-09-06T14:34:02.432Z,95.63
2018-09-06T14:35:02.458Z,101.25
2018-09-06T14:36:55.385Z,101.25
2018-09-06T14:37:55.403Z,106.88
2018-09-06T14:39:48.325Z,118.13
2018-09-06T14:40:48.343Z,129.38
2018-09-06T14:42:41.262Z,135.00
2018-09-06T14:43:41.287Z,140.63
2018-09-06T14:45:34.209Z,140.63
2018-09-06T14:46:34.227Z,135.00
2018-09-06T14:48:27.143Z,151.88
2018-09-06T14:49:27.172Z,180.00
2018-09-06T14:51:20.093Z,253.13
2018-09-06T14:52:20.111Z,275.63
2018-09-06T14:54:13.035Z,298.13
2018-09-06T14:55:13.055Z,275.63
2018-09-06T14:57:05.981Z,264.38
2018-09-06T14:58:06.000Z,264.38
2018-09-06T14:59:58.941Z,253.13
2018-09-06T15:00:58.944Z,253.13
2018-09-06T15:02:51.871Z,247.50
2018-09-06T15:03:51.899Z,225.00
2018-09-06T15:05:44.823Z,225.00
2018-09-06T15:06:44.844Z,247.50
2018-09-06T15:08:37.756Z,298.13
2018-09-06T15:09:37.784Z,315.00
2018-09-06T15:11:30.707Z,298.13
2018-09-06T15:12:30.725Z,286.88
2018-09-06T15:14:23.643Z,275.63
2018-09-06T15:15:23.671Z,258.75
2018-09-06T15:17:16.596Z,236.25
2018-09-06T15:18:16.614Z,225.00
2018-09-06T15:20:09.576Z,202.50
2018-09-06T15:21:09.568Z,196.88
2018-09-06T15:23:02.508Z,196.88
2018-09-06T15:24:02.504Z,213.75
2018-09-06T15:25:55.434Z,202.50
2018-09-06T15:26:55.456Z,208.13
2018-09-06T15:28:48.374Z,180.00
2018-09-06T15:29:48.398Z,185.63
2018-09-06T15:31:41.324Z,225.00
2018-09-06T15:32:41.341Z,225.00
2018-09-06T15:34:34.309Z,174.38
2018-09-06T15:35:34.289Z,163.13
2018-09-06T15:37:27.224Z,157.50
2018-09-06T15:38:27.242Z,157.50
2018-09-06T15:40:20.159Z,151.88
2018-09-06T15:41:20.192Z,151.88
2018-09-06T15:43:13.123Z,157.50
2018-09-06T15:44:13.141Z,163.13
2018-09-06T15:46:06.067Z,151.88
2018-09-06T15:47:06.084Z,151.88
2018-09-06T15:48:59.016Z,174.38
2018-09-06T15:49:59.073Z,157.50
2018-09-06T15:51:51.955Z,146.25
2018-09-06T15:52:51.972Z,151.88
2018-09-06T15:54:44.890Z,140.63
2018-09-06T15:55:44.922Z,140.63
2018-09-06T15:57:37.839Z,151.88
2018-09-06T15:58:37.860Z,146.25
2018-09-06T16:00:31.124Z,151.88
2018-09-06T16:01:30.996Z,157.50
2018-09-06T16:03:23.925Z,163.13
2018-09-06T16:04:23.938Z,157.50
2018-09-06T16:06:16.908Z,140.63
2018-09-06T16:07:16.881Z,140.63
2018-09-06T16:09:09.805Z,163.13
2018-09-06T16:10:09.831Z,168.75
2018-09-06T16:12:02.763Z,157.50
2018-09-06T16:13:02.781Z,163.13
2018-09-06T16:14:55.691Z,163.13
2018-09-06T16:15:55.724Z,157.50
2018-09-06T16:17:48.642Z,151.88
2018-09-06T16:18:48.662Z,146.25
2018-09-06T16:20:41.582Z,140.63
2018-09-06T16:21:41.601Z,129.38
2018-09-06T16:23:34.583Z,129.38
2018-09-06T16:24:34.599Z,123.75
2018-09-06T16:26:27.469Z,140.63
2018-09-06T16:27:27.486Z,151.88
2018-09-06T16:29:20.409Z,146.25
2018-09-06T16:30:20.518Z,140.63
2018-09-06T16:32:13.355Z,140.63
2018-09-06T16:33:13.375Z,140.63
2018-09-06T16:35:06.303Z,140.63
2018-09-06T16:36:06.325Z,135.00
2018-09-06T16:37:59.246Z,140.63
2018-09-06T16:38:59.270Z,135.00
2018-09-06T16:40:53.194Z,129.38
2018-09-06T16:41:53.242Z,123.75
2018-09-06T16:43:46.231Z,118.13
2018-09-06T16:44:46.162Z,118.13
2018-09-06T16:46:40.096Z,118.13
2018-09-06T16:49:32.075Z,118.13
2018-09-06T16:50:32.103Z,118.13
2018-09-06T16:52:25.643Z,118.13
2018-09-06T16:53:25.633Z,123.75
2018-09-06T16:55:19.364Z,118.13
2018-09-06T16:56:19.388Z,112.50
2018-09-06T16:58:12.307Z,106.88
2018-09-06T16:59:12.324Z,106.88
2018-09-06T17:01:05.296Z,101.25
2018-09-06T17:02:05.272Z,90.00
2018-09-06T17:03:58.197Z,84.38
2018-09-06T17:04:58.213Z,84.38
2018-09-06T17:06:51.179Z,78.75
2018-09-06T17:07:51.162Z,73.13
2018-09-06T17:09:44.074Z,67.50
2018-09-06T17:10:44.100Z,61.88
2018-09-06T17:12:37.021Z,61.88
2018-09-06T17:13:37.039Z,56.25
2018-09-06T17:15:29.958Z,50.63
2018-09-06T17:16:29.983Z,45.00
2018-09-06T17:18:22.956Z,33.75
2018-09-06T17:19:22.946Z,28.13
2018-09-06T17:21:15.864Z,28.13
2018-09-06T17:22:15.890Z,28.13
2018-09-06T17:24:08.989Z,22.50
2018-09-06T17:25:09.008Z,16.88
2018-09-06T17:27:01.946Z,16.88
2018-09-06T17:28:01.947Z,16.88
2018-09-06T17:29:54.878Z,16.88
2018-09-06T17:30:54.904Z,16.88
2018-09-06T17:32:48.025Z,16.88
2018-09-06T17:33:47.843Z,16.88
2018-09-06T17:35:40.761Z,11.25
2018-09-06T17:36:40.782Z,16.88
2018-09-06T17:38:33.729Z,16.88
2018-09-06T17:39:33.723Z,16.88
2018-09-06T17:41:26.639Z,11.25
2018-09-06T17:42:26.662Z,11.25
2018-09-06T17:44:19.587Z,11.25
2018-09-06T17:45:19.604Z,11.25
2018-09-06T17:47:12.526Z,11.25
2018-09-06T17:48:12.542Z,11.25
2018-09-06T17:50:06.458Z,11.25
2018-09-06T17:51:06.481Z,11.25
2018-09-06T17:52:59.406Z,5.63
2018-09-06T17:53:59.420Z,5.63
2018-09-06T17:55:52.339Z,5.63
2018-09-06T17:56:52.365Z,5.63
2018-09-06T17:58:45.302Z,5.63
2018-09-06T17:59:45.305Z,5.63
2018-09-06T18:01:38.265Z,5.63
2018-09-06T18:02:38.248Z,0.00
2018-09-06T18:04:31.172Z,0.00
2018-09-06T18:05:31.190Z,0.00
2018-09-06T18:07:24.112Z,0.00
2018-09-06T18:08:24.158Z,0.00
2018-09-06T18:10:17.042Z,0.00
2018-09-06T18:11:17.169Z,0.00
2018-09-06T18:13:09.989Z,0.00
2018-09-06T18:14:10.005Z,0.00
2018-09-06T18:16:02.913Z,0.00
2018-09-06T18:17:02.943Z,0.00
2018-09-06T18:18:55.868Z,0.00
2018-09-06T18:19:55.884Z,0.00
2018-09-06T18:21:48.798Z,0.00
2018-09-06T18:22:48.856Z,0.00
2018-09-06T18:24:41.756Z,0.00